sensor_id;sensor_type;location;lat;lon;timestamp;temperature;humidity
7461;DHT22;6757;52.258;12.840;2023-07-30T00:00:02;16.20;99.90
7461;DHT22;6757;52.258;12.840;2023-07-30T00:02:33;16.20;99.90
7461;DHT22;6757;52.258;12.840;2023-07-30T00:05:00;16.10;99.90
7461;DHT22;6757;52.258;12.840;2023-07-30T00:07:27;16.10;99.90
7461;DHT22;6757;52.258;12.840;2023-07-30T00:09:54;16.10;99.90
7461;DHT22;6757;52.258;12.840;2023-07-30T00:12:21;16.20;99.90
7461;DHT22;6757;52.258;12.840;2023-07-30T00:14:48;16.00;99.90
7461;DHT22;6757;52.258;12.840;2023-07-30T00:17:15;16.00;99.90
7461;DHT22;6757;52.258;12.840;2023-07-30T00:19:43;15.90;99.90
7461;DHT22;6757;52.258;12.840;2023-07-30T00:22:10;15.90;99.90
7461;DHT22;6757;52.258;12.840;2023-07-30T00:24:37;15.90;99.90
7461;DHT22;6757;52.258;12.840;2023-07-30T00:27:04;15.80;99.90
7461;DHT22;6757;52.258;12.840;2023-07-30T00:29:32;15.80;99.90
7461;DHT22;6757;52.258;12.840;2023-07-30T00:31:59;15.80;99.90
7461;DHT22;6757;52.258;12.840;2023-07-30T00:34:26;15.70;99.90
7461;DHT22;6757;52.258;12.840;2023-07-30T00:36:54;15.70;99.90
7461;DHT22;6757;52.258;12.840;2023-07-30T00:39:21;15.70;99.90
7461;DHT22;6757;52.258;12.840;2023-07-30T00:41:48;15.90;99.90
7461;DHT22;6757;52.258;12.840;2023-07-30T00:44:16;15.60;99.90
7461;DHT22;6757;52.258;12.840;2023-07-30T00:46:43;15.50;99.90
7461;DHT22;6757;52.258;12.840;2023-07-30T00:49:10;15.40;99.90
7461;DHT22;6757;52.258;12.840;2023-07-30T00:51:37;15.40;99.90
7461;DHT22;6757;52.258;12.840;2023-07-30T00:54:06;15.30;99.90
7461;DHT22;6757;52.258;12.840;2023-07-30T00:56:32;15.30;99.90
7461;DHT22;6757;52.258;12.840;2023-07-30T00:59:00;15.30;99.90
7461;DHT22;6757;52.258;12.840;2023-07-30T01:01:27;15.40;99.90
7461;DHT22;6757;52.258;12.840;2023-07-30T01:03:55;15.30;99.90
7461;DHT22;6757;52.258;12.840;2023-07-30T01:06:21;15.20;99.90
7461;DHT22;6757;52.258;12.840;2023-07-30T01:08:49;15.20;99.90
7461;DHT22;6757;52.258;12.840;2023-07-30T01:11:17;15.20;99.90
7461;DHT22;6757;52.258;12.840;2023-07-30T01:13:45;15.20;99.90
7461;DHT22;6757;52.258;12.840;2023-07-30T01:16:12;15.10;99.90
7461;DHT22;6757;52.258;12.840;2023-07-30T01:18:39;15.10;99.90
7461;DHT22;6757;52.258;12.840;2023-07-30T01:21:08;15.00;99.90
7461;DHT22;6757;52.258;12.840;2023-07-30T01:23:35;15.00;99.90
7461;DHT22;6757;52.258;12.840;2023-07-30T01:26:09;15.00;99.90
7461;DHT22;6757;52.258;12.840;2023-07-30T01:28:44;15.00;99.90
7461;DHT22;6757;52.258;12.840;2023-07-30T01:31:15;14.90;99.90
7461;DHT22;6757;52.258;12.840;2023-07-30T01:33:45;14.90;99.90
7461;DHT22;6757;52.258;12.840;2023-07-30T01:36:15;14.90;99.90
7461;DHT22;6757;52.258;12.840;2023-07-30T01:38:43;14.80;99.90
7461;DHT22;6757;52.258;12.840;2023-07-30T01:41:10;14.80;99.90
7461;DHT22;6757;52.258;12.840;2023-07-30T01:43:37;14.90;99.90
7461;DHT22;6757;52.258;12.840;2023-07-30T01:46:04;14.70;99.90
7461;DHT22;6757;52.258;12.840;2023-07-30T01:48:31;14.70;99.90
7461;DHT22;6757;52.258;12.840;2023-07-30T01:50:58;14.70;99.90
7461;DHT22;6757;52.258;12.840;2023-07-30T01:53:26;14.60;99.90
7461;DHT22;6757;52.258;12.840;2023-07-30T01:55:53;14.60;99.90
7461;DHT22;6757;52.258;12.840;2023-07-30T01:58:20;14.60;99.90
7461;DHT22;6757;52.258;12.840;2023-07-30T02:00:47;14.50;99.90
7461;DHT22;6757;52.258;12.840;2023-07-30T02:03:14;14.50;99.90
7461;DHT22;6757;52.258;12.840;2023-07-30T02:05:41;14.50;99.90
7461;DHT22;6757;52.258;12.840;2023-07-30T02:08:08;14.50;99.90
7461;DHT22;6757;52.258;12.840;2023-07-30T02:10:37;14.40;99.90
7461;DHT22;6757;52.258;12.840;2023-07-30T02:13:04;14.40;99.90
7461;DHT22;6757;52.258;12.840;2023-07-30T02:15:30;14.40;99.90
7461;DHT22;6757;52.258;12.840;2023-07-30T02:17:57;14.40;99.90
7461;DHT22;6757;52.258;12.840;2023-07-30T02:20:24;14.30;99.90
7461;DHT22;6757;52.258;12.840;2023-07-30T02:22:51;14.30;99.90
7461;DHT22;6757;52.258;12.840;2023-07-30T02:25:18;14.30;99.90
7461;DHT22;6757;52.258;12.840;2023-07-30T02:27:47;14.30;99.90
7461;DHT22;6757;52.258;12.840;2023-07-30T02:30:14;14.20;99.90
7461;DHT22;6757;52.258;12.840;2023-07-30T02:32:41;14.20;99.90
7461;DHT22;6757;52.258;12.840;2023-07-30T02:35:08;14.20;99.90
7461;DHT22;6757;52.258;12.840;2023-07-30T02:37:35;14.20;99.90
7461;DHT22;6757;52.258;12.840;2023-07-30T02:40:03;14.20;99.90
7461;DHT22;6757;52.258;12.840;2023-07-30T02:42:30;14.20;99.90
7461;DHT22;6757;52.258;12.840;2023-07-30T02:44:59;14.20;99.90
7461;DHT22;6757;52.258;12.840;2023-07-30T02:47:26;14.20;99.90
7461;DHT22;6757;52.258;12.840;2023-07-30T02:49:53;14.20;99.90
7461;DHT22;6757;52.258;12.840;2023-07-30T02:52:20;14.20;99.90
7461;DHT22;6757;52.258;12.840;2023-07-30T02:54:47;14.10;99.90
7461;DHT22;6757;52.258;12.840;2023-07-30T02:57:14;14.10;99.90
7461;DHT22;6757;52.258;12.840;2023-07-30T02:59:41;14.10;99.90
7461;DHT22;6757;52.258;12.840;2023-07-30T03:02:09;14.10;99.90
7461;DHT22;6757;52.258;12.840;2023-07-30T03:04:36;14.10;99.90
7461;DHT22;6757;52.258;12.840;2023-07-30T03:07:04;14.20;99.90
7461;DHT22;6757;52.258;12.840;2023-07-30T03:09:31;14.20;99.90
7461;DHT22;6757;52.258;12.840;2023-07-30T03:11:59;14.20;99.90
7461;DHT22;6757;52.258;12.840;2023-07-30T03:14:26;14.20;99.90
7461;DHT22;6757;52.258;12.840;2023-07-30T03:16:53;14.20;99.90
7461;DHT22;6757;52.258;12.840;2023-07-30T03:19:21;14.50;99.90
7461;DHT22;6757;52.258;12.840;2023-07-30T03:21:48;14.20;99.90
7461;DHT22;6757;52.258;12.840;2023-07-30T03:24:15;14.30;99.90
7461;DHT22;6757;52.258;12.840;2023-07-30T03:26:42;14.30;99.90
7461;DHT22;6757;52.258;12.840;2023-07-30T03:29:09;14.30;99.90
7461;DHT22;6757;52.258;12.840;2023-07-30T03:31:35;14.30;99.90
7461;DHT22;6757;52.258;12.840;2023-07-30T03:34:02;14.30;99.90
7461;DHT22;6757;52.258;12.840;2023-07-30T03:36:31;14.30;99.90
7461;DHT22;6757;52.258;12.840;2023-07-30T03:38:58;14.40;99.90
7461;DHT22;6757;52.258;12.840;2023-07-30T03:41:25;14.40;99.90
7461;DHT22;6757;52.258;12.840;2023-07-30T03:43:52;14.40;99.90
7461;DHT22;6757;52.258;12.840;2023-07-30T03:46:19;14.40;99.90
7461;DHT22;6757;52.258;12.840;2023-07-30T03:48:46;14.40;99.90
7461;DHT22;6757;52.258;12.840;2023-07-30T03:51:13;14.40;99.90
7461;DHT22;6757;52.258;12.840;2023-07-30T03:53:42;14.40;99.90
7461;DHT22;6757;52.258;12.840;2023-07-30T03:56:09;14.50;99.90
7461;DHT22;6757;52.258;12.840;2023-07-30T03:58:36;14.50;99.90
7461;DHT22;6757;52.258;12.840;2023-07-30T04:01:03;14.50;99.90
7461;DHT22;6757;52.258;12.840;2023-07-30T04:03:29;14.50;99.90
7461;DHT22;6757;52.258;12.840;2023-07-30T04:05:56;14.60;99.90
7461;DHT22;6757;52.258;12.840;2023-07-30T04:08:23;14.50;99.90
7461;DHT22;6757;52.258;12.840;2023-07-30T04:10:52;14.60;99.90
7461;DHT22;6757;52.258;12.840;2023-07-30T04:13:19;14.60;99.90
7461;DHT22;6757;52.258;12.840;2023-07-30T04:15:47;14.60;99.90
7461;DHT22;6757;52.258;12.840;2023-07-30T04:18:14;14.60;99.90
7461;DHT22;6757;52.258;12.840;2023-07-30T04:20:41;14.50;99.90
7461;DHT22;6757;52.258;12.840;2023-07-30T04:23:08;14.60;99.90
7461;DHT22;6757;52.258;12.840;2023-07-30T04:25:35;14.60;99.90
7461;DHT22;6757;52.258;12.840;2023-07-30T04:28:03;14.60;99.90
7461;DHT22;6757;52.258;12.840;2023-07-30T04:30:31;14.60;99.90
7461;DHT22;6757;52.258;12.840;2023-07-30T04:32:58;14.60;99.90
7461;DHT22;6757;52.258;12.840;2023-07-30T04:35:25;14.60;99.90
7461;DHT22;6757;52.258;12.840;2023-07-30T04:37:52;14.60;99.90
7461;DHT22;6757;52.258;12.840;2023-07-30T04:40:19;14.60;99.90
7461;DHT22;6757;52.258;12.840;2023-07-30T04:42:46;14.60;99.90
7461;DHT22;6757;52.258;12.840;2023-07-30T04:45:14;14.60;99.90
7461;DHT22;6757;52.258;12.840;2023-07-30T04:47:41;14.60;99.90
7461;DHT22;6757;52.258;12.840;2023-07-30T04:50:09;14.70;99.90
7461;DHT22;6757;52.258;12.840;2023-07-30T04:52:36;14.70;99.90
7461;DHT22;6757;52.258;12.840;2023-07-30T04:55:04;14.80;99.90
7461;DHT22;6757;52.258;12.840;2023-07-30T04:57:31;14.90;99.90
7461;DHT22;6757;52.258;12.840;2023-07-30T04:59:58;15.00;99.90
7461;DHT22;6757;52.258;12.840;2023-07-30T05:02:26;15.00;99.90
7461;DHT22;6757;52.258;12.840;2023-07-30T05:04:53;15.10;99.90
7461;DHT22;6757;52.258;12.840;2023-07-30T05:07:20;15.20;99.90
7461;DHT22;6757;52.258;12.840;2023-07-30T05:09:47;15.20;99.90
7461;DHT22;6757;52.258;12.840;2023-07-30T05:12:14;15.30;99.90
7461;DHT22;6757;52.258;12.840;2023-07-30T05:14:41;15.40;99.90
7461;DHT22;6757;52.258;12.840;2023-07-30T05:17:08;15.50;99.90
7461;DHT22;6757;52.258;12.840;2023-07-30T05:19:36;15.50;99.90
7461;DHT22;6757;52.258;12.840;2023-07-30T05:22:04;15.60;99.90
7461;DHT22;6757;52.258;12.840;2023-07-30T05:24:33;15.70;99.90
7461;DHT22;6757;52.258;12.840;2023-07-30T05:27:02;15.70;99.90
7461;DHT22;6757;52.258;12.840;2023-07-30T05:29:29;15.80;99.90
7461;DHT22;6757;52.258;12.840;2023-07-30T05:31:56;15.90;99.90
7461;DHT22;6757;52.258;12.840;2023-07-30T05:34:23;15.90;99.90
7461;DHT22;6757;52.258;12.840;2023-07-30T05:36:51;16.00;99.90
7461;DHT22;6757;52.258;12.840;2023-07-30T05:39:18;16.10;99.90
7461;DHT22;6757;52.258;12.840;2023-07-30T05:41:45;16.10;99.90
7461;DHT22;6757;52.258;12.840;2023-07-30T05:44:12;16.20;99.90
7461;DHT22;6757;52.258;12.840;2023-07-30T05:46:39;16.20;99.90
7461;DHT22;6757;52.258;12.840;2023-07-30T05:49:06;16.30;99.90
7461;DHT22;6757;52.258;12.840;2023-07-30T05:51:33;16.40;99.90
7461;DHT22;6757;52.258;12.840;2023-07-30T05:54:01;16.50;99.90
7461;DHT22;6757;52.258;12.840;2023-07-30T05:56:28;16.60;99.90
7461;DHT22;6757;52.258;12.840;2023-07-30T05:58:55;16.60;99.90
7461;DHT22;6757;52.258;12.840;2023-07-30T06:01:22;16.70;99.90
7461;DHT22;6757;52.258;12.840;2023-07-30T06:03:49;16.80;99.90
7461;DHT22;6757;52.258;12.840;2023-07-30T06:06:16;16.80;99.90
7461;DHT22;6757;52.258;12.840;2023-07-30T06:08:45;16.80;99.90
7461;DHT22;6757;52.258;12.840;2023-07-30T06:11:13;16.90;99.90
7461;DHT22;6757;52.258;12.840;2023-07-30T06:13:40;17.00;99.90
7461;DHT22;6757;52.258;12.840;2023-07-30T06:16:07;17.10;99.90
7461;DHT22;6757;52.258;12.840;2023-07-30T06:18:34;17.20;99.90
7461;DHT22;6757;52.258;12.840;2023-07-30T06:21:01;17.30;99.90
7461;DHT22;6757;52.258;12.840;2023-07-30T06:23:28;17.40;99.90
7461;DHT22;6757;52.258;12.840;2023-07-30T06:25:55;17.60;99.90
7461;DHT22;6757;52.258;12.840;2023-07-30T06:28:23;17.70;99.90
7461;DHT22;6757;52.258;12.840;2023-07-30T06:30:50;17.80;99.90
7461;DHT22;6757;52.258;12.840;2023-07-30T06:33:17;18.00;99.90
7461;DHT22;6757;52.258;12.840;2023-07-30T06:35:44;18.10;99.90
7461;DHT22;6757;52.258;12.840;2023-07-30T06:38:11;18.10;99.90
7461;DHT22;6757;52.258;12.840;2023-07-30T06:40:38;18.20;99.90
7461;DHT22;6757;52.258;12.840;2023-07-30T06:43:05;18.30;99.90
7461;DHT22;6757;52.258;12.840;2023-07-30T06:45:33;18.30;99.90
7461;DHT22;6757;52.258;12.840;2023-07-30T06:48:00;18.40;99.90
7461;DHT22;6757;52.258;12.840;2023-07-30T06:50:27;18.90;99.90
7461;DHT22;6757;52.258;12.840;2023-07-30T06:52:54;18.50;99.90
7461;DHT22;6757;52.258;12.840;2023-07-30T06:55:21;18.60;99.90
7461;DHT22;6757;52.258;12.840;2023-07-30T06:57:48;18.70;99.90
7461;DHT22;6757;52.258;12.840;2023-07-30T07:00:15;18.80;99.90
7461;DHT22;6757;52.258;12.840;2023-07-30T07:02:48;18.80;99.90
7461;DHT22;6757;52.258;12.840;2023-07-30T07:05:15;18.90;99.90
7461;DHT22;6757;52.258;12.840;2023-07-30T07:07:42;19.00;99.90
7461;DHT22;6757;52.258;12.840;2023-07-30T07:10:10;19.00;99.90
7461;DHT22;6757;52.258;12.840;2023-07-30T07:12:37;19.10;99.90
7461;DHT22;6757;52.258;12.840;2023-07-30T07:15:06;19.10;99.90
7461;DHT22;6757;52.258;12.840;2023-07-30T07:17:34;19.20;99.90
7461;DHT22;6757;52.258;12.840;2023-07-30T07:20:03;19.20;99.90
7461;DHT22;6757;52.258;12.840;2023-07-30T07:22:32;19.30;99.90
7461;DHT22;6757;52.258;12.840;2023-07-30T07:24:59;19.40;99.90
7461;DHT22;6757;52.258;12.840;2023-07-30T07:27:26;19.40;99.90
7461;DHT22;6757;52.258;12.840;2023-07-30T07:29:53;19.50;99.90
7461;DHT22;6757;52.258;12.840;2023-07-30T07:32:20;19.50;99.90
7461;DHT22;6757;52.258;12.840;2023-07-30T07:34:48;19.50;99.90
7461;DHT22;6757;52.258;12.840;2023-07-30T07:37:16;19.60;99.90
7461;DHT22;6757;52.258;12.840;2023-07-30T07:39:44;19.60;99.90
7461;DHT22;6757;52.258;12.840;2023-07-30T07:42:12;19.60;99.90
7461;DHT22;6757;52.258;12.840;2023-07-30T07:44:39;19.70;99.90
7461;DHT22;6757;52.258;12.840;2023-07-30T07:47:06;19.70;99.90
7461;DHT22;6757;52.258;12.840;2023-07-30T07:49:33;19.80;99.90
7461;DHT22;6757;52.258;12.840;2023-07-30T07:52:00;19.80;99.90
7461;DHT22;6757;52.258;12.840;2023-07-30T07:54:29;19.90;99.90
7461;DHT22;6757;52.258;12.840;2023-07-30T07:56:56;20.00;99.90
7461;DHT22;6757;52.258;12.840;2023-07-30T07:59:23;20.00;99.90
7461;DHT22;6757;52.258;12.840;2023-07-30T08:01:50;20.10;99.90
7461;DHT22;6757;52.258;12.840;2023-07-30T08:04:17;20.10;99.90
7461;DHT22;6757;52.258;12.840;2023-07-30T08:06:46;20.20;99.90
7461;DHT22;6757;52.258;12.840;2023-07-30T08:09:13;20.20;99.90
7461;DHT22;6757;52.258;12.840;2023-07-30T08:11:42;20.30;99.90
7461;DHT22;6757;52.258;12.840;2023-07-30T08:14:09;20.40;99.90
7461;DHT22;6757;52.258;12.840;2023-07-30T08:16:35;20.40;99.90
7461;DHT22;6757;52.258;12.840;2023-07-30T08:19:02;20.50;99.90
7461;DHT22;6757;52.258;12.840;2023-07-30T08:21:29;20.50;99.90
7461;DHT22;6757;52.258;12.840;2023-07-30T08:23:56;20.60;99.90
7461;DHT22;6757;52.258;12.840;2023-07-30T08:26:23;20.60;99.90
7461;DHT22;6757;52.258;12.840;2023-07-30T08:28:52;20.70;99.90
7461;DHT22;6757;52.258;12.840;2023-07-30T08:31:19;20.80;99.90
7461;DHT22;6757;52.258;12.840;2023-07-30T08:33:45;20.90;99.90
7461;DHT22;6757;52.258;12.840;2023-07-30T08:36:12;21.10;99.90
7461;DHT22;6757;52.258;12.840;2023-07-30T08:38:39;21.20;99.90
7461;DHT22;6757;52.258;12.840;2023-07-30T08:41:06;21.30;99.90
7461;DHT22;6757;52.258;12.840;2023-07-30T08:43:34;21.40;99.90
7461;DHT22;6757;52.258;12.840;2023-07-30T08:46:03;21.40;99.90
7461;DHT22;6757;52.258;12.840;2023-07-30T08:48:30;21.50;99.90
7461;DHT22;6757;52.258;12.840;2023-07-30T08:50:57;21.60;99.90
7461;DHT22;6757;52.258;12.840;2023-07-30T08:53:25;21.60;99.90
7461;DHT22;6757;52.258;12.840;2023-07-30T08:55:53;21.70;99.90
7461;DHT22;6757;52.258;12.840;2023-07-30T08:58:22;21.60;99.90
7461;DHT22;6757;52.258;12.840;2023-07-30T09:00:50;21.60;99.90
7461;DHT22;6757;52.258;12.840;2023-07-30T09:03:19;21.60;99.90
7461;DHT22;6757;52.258;12.840;2023-07-30T09:05:47;21.60;99.90
7461;DHT22;6757;52.258;12.840;2023-07-30T09:08:14;21.70;99.90
7461;DHT22;6757;52.258;12.840;2023-07-30T09:10:41;21.70;99.90
7461;DHT22;6757;52.258;12.840;2023-07-30T09:13:08;21.70;99.90
7461;DHT22;6757;52.258;12.840;2023-07-30T09:15:36;21.60;99.90
7461;DHT22;6757;52.258;12.840;2023-07-30T09:18:04;21.70;99.90
7461;DHT22;6757;52.258;12.840;2023-07-30T09:20:38;21.70;99.90
7461;DHT22;6757;52.258;12.840;2023-07-30T09:23:06;21.70;99.90
7461;DHT22;6757;52.258;12.840;2023-07-30T09:25:33;21.80;99.90
7461;DHT22;6757;52.258;12.840;2023-07-30T09:28:00;21.90;99.90
7461;DHT22;6757;52.258;12.840;2023-07-30T09:30:27;21.90;99.90
7461;DHT22;6757;52.258;12.840;2023-07-30T09:32:55;21.90;99.90
7461;DHT22;6757;52.258;12.840;2023-07-30T09:35:24;22.00;99.90
7461;DHT22;6757;52.258;12.840;2023-07-30T09:37:59;22.10;99.90
7461;DHT22;6757;52.258;12.840;2023-07-30T09:40:32;22.20;99.90
7461;DHT22;6757;52.258;12.840;2023-07-30T09:42:59;22.30;99.90
7461;DHT22;6757;52.258;12.840;2023-07-30T09:45:26;22.20;99.90
7461;DHT22;6757;52.258;12.840;2023-07-30T09:47:54;22.20;99.90
7461;DHT22;6757;52.258;12.840;2023-07-30T09:50:22;22.20;99.90
7461;DHT22;6757;52.258;12.840;2023-07-30T09:52:50;22.20;99.90
7461;DHT22;6757;52.258;12.840;2023-07-30T09:55:19;22.30;99.90
7461;DHT22;6757;52.258;12.840;2023-07-30T09:57:46;22.30;99.90
7461;DHT22;6757;52.258;12.840;2023-07-30T10:00:13;22.40;99.90
7461;DHT22;6757;52.258;12.840;2023-07-30T10:02:45;22.50;99.90
7461;DHT22;6757;52.258;12.840;2023-07-30T10:05:15;22.50;99.90
7461;DHT22;6757;52.258;12.840;2023-07-30T10:07:51;22.60;99.90
7461;DHT22;6757;52.258;12.840;2023-07-30T10:10:24;22.70;99.90
7461;DHT22;6757;52.258;12.840;2023-07-30T10:12:53;22.70;99.90
7461;DHT22;6757;52.258;12.840;2023-07-30T10:15:22;22.60;99.90
7461;DHT22;6757;52.258;12.840;2023-07-30T10:17:49;22.60;99.90
7461;DHT22;6757;52.258;12.840;2023-07-30T10:20:21;22.50;99.90
7461;DHT22;6757;52.258;12.840;2023-07-30T10:22:51;22.40;99.90
7461;DHT22;6757;52.258;12.840;2023-07-30T10:25:22;22.40;99.90
7461;DHT22;6757;52.258;12.840;2023-07-30T10:27:53;22.50;99.90
7461;DHT22;6757;52.258;12.840;2023-07-30T10:30:20;22.60;99.90
7461;DHT22;6757;52.258;12.840;2023-07-30T10:33:03;22.70;99.90
7461;DHT22;6757;52.258;12.840;2023-07-30T10:35:41;22.80;99.90
7461;DHT22;6757;52.258;12.840;2023-07-30T10:38:14;22.90;99.90
7461;DHT22;6757;52.258;12.840;2023-07-30T10:40:59;22.90;99.90
7461;DHT22;6757;52.258;12.840;2023-07-30T10:43:28;23.10;99.90
7461;DHT22;6757;52.258;12.840;2023-07-30T10:45:55;23.20;99.90
7461;DHT22;6757;52.258;12.840;2023-07-30T10:48:30;23.30;99.90
7461;DHT22;6757;52.258;12.840;2023-07-30T10:50:59;23.50;99.90
7461;DHT22;6757;52.258;12.840;2023-07-30T10:53:27;23.60;99.90
7461;DHT22;6757;52.258;12.840;2023-07-30T10:55:57;23.60;99.90
7461;DHT22;6757;52.258;12.840;2023-07-30T10:58:27;23.60;99.90
7461;DHT22;6757;52.258;12.840;2023-07-30T11:00:54;23.60;99.90
7461;DHT22;6757;52.258;12.840;2023-07-30T11:03:23;23.60;99.90
7461;DHT22;6757;52.258;12.840;2023-07-30T11:05:51;23.60;99.90
7461;DHT22;6757;52.258;12.840;2023-07-30T11:08:18;23.90;99.90
7461;DHT22;6757;52.258;12.840;2023-07-30T11:10:45;23.70;99.90
7461;DHT22;6757;52.258;12.840;2023-07-30T11:13:14;23.80;99.90
7461;DHT22;6757;52.258;12.840;2023-07-30T11:15:42;23.80;99.90
7461;DHT22;6757;52.258;12.840;2023-07-30T11:18:10;23.90;99.90
7461;DHT22;6757;52.258;12.840;2023-07-30T11:20:39;24.00;99.90
7461;DHT22;6757;52.258;12.840;2023-07-30T11:23:19;24.10;99.90
7461;DHT22;6757;52.258;12.840;2023-07-30T11:25:47;24.00;99.90
7461;DHT22;6757;52.258;12.840;2023-07-30T11:28:27;24.10;99.90
7461;DHT22;6757;52.258;12.840;2023-07-30T11:30:57;24.10;99.90
7461;DHT22;6757;52.258;12.840;2023-07-30T11:33:25;24.30;99.90
7461;DHT22;6757;52.258;12.840;2023-07-30T11:35:53;24.20;99.90
7461;DHT22;6757;52.258;12.840;2023-07-30T11:38:21;24.20;99.90
7461;DHT22;6757;52.258;12.840;2023-07-30T11:40:49;24.30;99.40
7461;DHT22;6757;52.258;12.840;2023-07-30T11:43:18;24.40;97.80
7461;DHT22;6757;52.258;12.840;2023-07-30T11:45:45;24.50;96.80
7461;DHT22;6757;52.258;12.840;2023-07-30T11:48:12;24.60;96.70
7461;DHT22;6757;52.258;12.840;2023-07-30T11:50:46;24.70;96.50
7461;DHT22;6757;52.258;12.840;2023-07-30T11:53:14;24.80;96.20
7461;DHT22;6757;52.258;12.840;2023-07-30T11:55:42;24.70;95.40
7461;DHT22;6757;52.258;12.840;2023-07-30T11:58:11;24.80;94.90
7461;DHT22;6757;52.258;12.840;2023-07-30T12:00:41;24.80;94.70
7461;DHT22;6757;52.258;12.840;2023-07-30T12:03:11;24.90;94.60
7461;DHT22;6757;52.258;12.840;2023-07-30T12:05:39;25.10;94.90
7461;DHT22;6757;52.258;12.840;2023-07-30T12:08:13;25.00;94.70
7461;DHT22;6757;52.258;12.840;2023-07-30T12:10:41;25.20;94.90
7461;DHT22;6757;52.258;12.840;2023-07-30T12:13:13;25.50;94.70
7461;DHT22;6757;52.258;12.840;2023-07-30T12:15:46;25.70;94.40
7461;DHT22;6757;52.258;12.840;2023-07-30T12:18:17;26.00;94.20
7461;DHT22;6757;52.258;12.840;2023-07-30T12:20:44;26.10;93.40
7461;DHT22;6757;52.258;12.840;2023-07-30T12:23:11;26.10;92.60
7461;DHT22;6757;52.258;12.840;2023-07-30T12:25:38;25.90;92.50
7461;DHT22;6757;52.258;12.840;2023-07-30T12:28:05;25.80;92.50
7461;DHT22;6757;52.258;12.840;2023-07-30T12:30:33;25.80;92.10
7461;DHT22;6757;52.258;12.840;2023-07-30T12:33:02;25.80;90.90
7461;DHT22;6757;52.258;12.840;2023-07-30T12:35:30;25.70;90.00
7461;DHT22;6757;52.258;12.840;2023-07-30T12:37:57;25.70;88.40
7461;DHT22;6757;52.258;12.840;2023-07-30T12:40:25;25.60;87.90
7461;DHT22;6757;52.258;12.840;2023-07-30T12:42:55;25.60;87.60
7461;DHT22;6757;52.258;12.840;2023-07-30T12:45:22;25.50;87.30
7461;DHT22;6757;52.258;12.840;2023-07-30T12:47:49;25.40;87.40
7461;DHT22;6757;52.258;12.840;2023-07-30T12:50:18;25.30;87.70
7461;DHT22;6757;52.258;12.840;2023-07-30T12:52:45;25.20;87.80
7461;DHT22;6757;52.258;12.840;2023-07-30T12:55:11;25.20;87.80
7461;DHT22;6757;52.258;12.840;2023-07-30T12:57:38;25.10;87.90
7461;DHT22;6757;52.258;12.840;2023-07-30T13:00:06;25.00;88.10
7461;DHT22;6757;52.258;12.840;2023-07-30T13:02:34;24.90;88.20
7461;DHT22;6757;52.258;12.840;2023-07-30T13:05:01;24.70;88.10
7461;DHT22;6757;52.258;12.840;2023-07-30T13:07:30;24.60;88.30
7461;DHT22;6757;52.258;12.840;2023-07-30T13:10:04;24.50;88.90
7461;DHT22;6757;52.258;12.840;2023-07-30T13:12:33;24.50;89.30
7461;DHT22;6757;52.258;12.840;2023-07-30T13:15:00;24.40;89.20
7461;DHT22;6757;52.258;12.840;2023-07-30T13:17:28;24.50;89.20
7461;DHT22;6757;52.258;12.840;2023-07-30T13:19:55;24.40;88.70
7461;DHT22;6757;52.258;12.840;2023-07-30T13:22:22;24.40;88.90
7461;DHT22;6757;52.258;12.840;2023-07-30T13:24:50;24.60;89.50
7461;DHT22;6757;52.258;12.840;2023-07-30T13:27:17;24.60;89.20
7461;DHT22;6757;52.258;12.840;2023-07-30T13:29:44;24.50;88.50
7461;DHT22;6757;52.258;12.840;2023-07-30T13:32:13;24.50;88.50
7461;DHT22;6757;52.258;12.840;2023-07-30T13:34:40;24.40;88.70
7461;DHT22;6757;52.258;12.840;2023-07-30T13:37:08;24.20;89.10
7461;DHT22;6757;52.258;12.840;2023-07-30T13:39:35;24.00;89.60
7461;DHT22;6757;52.258;12.840;2023-07-30T13:42:04;23.90;90.30
7461;DHT22;6757;52.258;12.840;2023-07-30T13:44:31;23.80;90.90
7461;DHT22;6757;52.258;12.840;2023-07-30T13:46:58;23.60;91.30
7461;DHT22;6757;52.258;12.840;2023-07-30T13:49:25;23.50;91.70
7461;DHT22;6757;52.258;12.840;2023-07-30T13:51:52;23.30;92.50
7461;DHT22;6757;52.258;12.840;2023-07-30T13:54:18;23.20;92.70
7461;DHT22;6757;52.258;12.840;2023-07-30T13:56:45;23.10;93.30
7461;DHT22;6757;52.258;12.840;2023-07-30T13:59:14;22.90;94.10
7461;DHT22;6757;52.258;12.840;2023-07-30T14:01:40;22.60;95.40
7461;DHT22;6757;52.258;12.840;2023-07-30T14:04:07;22.20;97.00
7461;DHT22;6757;52.258;12.840;2023-07-30T14:06:34;21.90;99.40
7461;DHT22;6757;52.258;12.840;2023-07-30T14:09:02;21.50;99.90
7461;DHT22;6757;52.258;12.840;2023-07-30T14:11:30;21.00;99.90
7461;DHT22;6757;52.258;12.840;2023-07-30T14:13:57;20.60;99.90
7461;DHT22;6757;52.258;12.840;2023-07-30T14:16:26;20.10;99.90
7461;DHT22;6757;52.258;12.840;2023-07-30T14:18:52;19.80;99.90
7461;DHT22;6757;52.258;12.840;2023-07-30T14:21:19;19.40;99.90
7461;DHT22;6757;52.258;12.840;2023-07-30T14:23:46;19.20;99.90
7461;DHT22;6757;52.258;12.840;2023-07-30T14:26:13;19.00;99.90
7461;DHT22;6757;52.258;12.840;2023-07-30T14:28:40;18.80;99.90
7461;DHT22;6757;52.258;12.840;2023-07-30T14:31:07;18.60;99.90
7461;DHT22;6757;52.258;12.840;2023-07-30T14:33:36;18.40;99.90
7461;DHT22;6757;52.258;12.840;2023-07-30T14:36:03;18.40;99.90
7461;DHT22;6757;52.258;12.840;2023-07-30T14:38:31;18.30;99.90
7461;DHT22;6757;52.258;12.840;2023-07-30T14:40:59;18.20;99.90
7461;DHT22;6757;52.258;12.840;2023-07-30T14:43:27;18.20;99.90
7461;DHT22;6757;52.258;12.840;2023-07-30T14:45:54;18.10;99.90
7461;DHT22;6757;52.258;12.840;2023-07-30T14:48:22;18.10;99.90
7461;DHT22;6757;52.258;12.840;2023-07-30T14:50:50;18.20;99.90
7461;DHT22;6757;52.258;12.840;2023-07-30T14:53:17;18.30;99.90
7461;DHT22;6757;52.258;12.840;2023-07-30T14:55:44;18.40;99.90
7461;DHT22;6757;52.258;12.840;2023-07-30T14:58:11;18.50;99.90
7461;DHT22;6757;52.258;12.840;2023-07-30T15:00:39;18.60;99.90
7461;DHT22;6757;52.258;12.840;2023-07-30T15:03:06;18.90;99.90
7461;DHT22;6757;52.258;12.840;2023-07-30T15:05:33;19.40;99.90
7461;DHT22;6757;52.258;12.840;2023-07-30T15:08:01;19.90;99.90
7461;DHT22;6757;52.258;12.840;2023-07-30T15:10:28;20.70;99.90
7461;DHT22;6757;52.258;12.840;2023-07-30T15:12:55;21.30;99.90
7461;DHT22;6757;52.258;12.840;2023-07-30T15:15:22;21.70;99.90
7461;DHT22;6757;52.258;12.840;2023-07-30T15:17:49;22.10;99.90
7461;DHT22;6757;52.258;12.840;2023-07-30T15:20:16;22.40;99.90
7461;DHT22;6757;52.258;12.840;2023-07-30T15:22:43;22.40;99.90
7461;DHT22;6757;52.258;12.840;2023-07-30T15:25:11;22.40;99.90
7461;DHT22;6757;52.258;12.840;2023-07-30T15:27:38;22.50;99.90
7461;DHT22;6757;52.258;12.840;2023-07-30T15:30:06;22.60;99.90
7461;DHT22;6757;52.258;12.840;2023-07-30T15:32:40;22.90;99.90
7461;DHT22;6757;52.258;12.840;2023-07-30T15:35:09;23.20;99.90
7461;DHT22;6757;52.258;12.840;2023-07-30T15:37:37;23.50;99.90
7461;DHT22;6757;52.258;12.840;2023-07-30T15:40:05;23.50;99.90
7461;DHT22;6757;52.258;12.840;2023-07-30T15:42:35;23.60;99.90
7461;DHT22;6757;52.258;12.840;2023-07-30T15:45:02;23.50;99.90
7461;DHT22;6757;52.258;12.840;2023-07-30T15:47:29;23.60;99.90